Terminal Aerodrome Forecast
Issued by NWS

Home | Current Version | Previous Version | Graphics & Text | Print | Product List | Glossary On
Versions: 1 2 3 4 5 6 7 8 9 10 11 12 13 14 15 16 17 18 19 20 21
857
FTUS42 KMHX 220548
TAFPGV
TAF
KPGV 220548Z 2206/2306 19006KT 3SM BR VCSH OVC003
     FM220800 24007KT 1SM BR VCSH BKN003
     FM221300 VRB03KT 3SM BR VCSH BKN003
     FM221700 11004KT P6SM BKN010
     FM230000 08007KT 3SM SHRA BR VCTS OVC015CB
      AMD LTD TO CLD VIS AND WIND=

USA.gov is the U.S. government's official web portal to all federal, state and local government web resources and services.